Thursday, May 24, 2018, 12:51 PM CDT
Back to Local

KJOT, Joliet, Joliet Regional Airport

Location: Joliet, IL, United States Lat: 41.518
Local Time: 12:51 PM CDT (17:51 GMT) Lon: -88.175
Time Zone: US/Central Elev: 580 ft

Show me the last for .
Show Decoded

2018-05-24 12:35 METAR KJOT 241735Z AUTO 19003KT 10SM CLR 28/14 A3015 RMK AO2 T02840136 =
2018-05-24 12:15 METAR KJOT 241715Z AUTO 14005KT 10SM CLR 28/14 A3016 RMK AO2 T02810143 =
2018-05-24 11:55 METAR KJOT 241655Z AUTO 14008KT 10SM CLR 28/15 A3017 RMK AO2 T02790148 =
2018-05-24 11:35 METAR KJOT 241635Z AUTO 19007KT 10SM CLR 27/15 A3017 RMK AO2 T02740147 =
2018-05-24 11:15 METAR KJOT 241615Z AUTO 17005KT 10SM CLR 27/15 A3018 RMK AO2 T02710147 =
2018-05-24 10:55 METAR KJOT 241555Z AUTO 16005KT 10SM CLR 27/15 A3018 RMK AO2 T02680151 =
2018-05-24 10:35 METAR KJOT 241535Z AUTO 19005KT 10SM CLR 26/15 A3019 RMK AO2 T02640152 =
2018-05-24 10:15 METAR KJOT 241515Z AUTO 15005KT 10SM CLR 26/15 A3019 RMK AO2 T02600153 =
2018-05-24 09:55 METAR KJOT 241455Z AUTO 15006KT 10SM CLR 26/15 A3019 RMK AO2 T02550152 =
2018-05-24 09:35 METAR KJOT 241435Z AUTO 18006KT 10SM CLR 25/15 A3020 RMK AO2 T02480154 =
2018-05-24 09:15 METAR KJOT 241415Z AUTO 16006KT 10SM CLR 24/15 A3020 RMK AO2 T02400150 =
2018-05-24 08:55 METAR KJOT 241355Z AUTO 17006KT 10SM CLR 24/15 A3021 RMK AO2 T02360151 =
2018-05-24 08:35 METAR KJOT 241335Z AUTO 18005KT 10SM CLR 23/15 A3021 RMK AO2 T02260149 =
2018-05-24 08:15 METAR KJOT 241315Z AUTO 16004KT 10SM CLR 22/15 A3022 RMK AO2 T02170150 =
2018-05-24 07:55 METAR KJOT 241255Z AUTO 16004KT 10SM CLR 21/15 A3022 RMK AO2 T02060148 =
2018-05-24 07:35 METAR KJOT 241235Z AUTO 16003KT 10SM CLR 20/15 A3021 RMK AO2 T01970148 =
2018-05-24 07:15 METAR KJOT 241215Z AUTO 16004KT 10SM CLR 19/15 A3021 RMK AO2 T01900148 =
2018-05-24 06:55 METAR KJOT 241155Z AUTO 00000KT 10SM CLR 17/16 A3021 RMK AO2 T01730155 10173
                 20127 =
2018-05-24 06:35 METAR KJOT 241135Z AUTO 00000KT 10SM CLR 15/14 A3021 RMK AO2 T01540142 =
2018-05-24 06:15 METAR KJOT 241115Z AUTO 00000KT 10SM CLR 14/14 A3020 RMK AO2 T01440137 =
2018-05-24 05:55 METAR KJOT 241055Z AUTO 00000KT 7SM CLR 14/13 A3020 RMK AO2 T01370134 =
2018-05-24 05:35 METAR KJOT 241035Z AUTO 00000KT 7SM CLR 13/13 A3019 RMK AO2 T01300129 =
2018-05-24 05:15 METAR KJOT 241015Z AUTO 00000KT 10SM CLR 13/13 A3019 RMK AO2 T01290128 =
2018-05-24 04:55 METAR KJOT 240955Z AUTO 00000KT 10SM CLR 13/13 A3018 RMK AO2 T01300127 =
2018-05-24 04:35 METAR KJOT 240935Z AUTO 00000KT 10SM CLR 13/13 A3017 RMK AO2 T01340129 =
2018-05-24 04:15 METAR KJOT 240915Z AUTO 00000KT 10SM CLR 14/13 A3016 RMK AO2 T01360130 =
2018-05-24 03:55 METAR KJOT 240855Z AUTO 00000KT 10SM CLR 13/13 A3016 RMK AO2 T01340127 =
2018-05-24 03:35 METAR KJOT 240835Z AUTO 00000KT 10SM CLR 14/13 A3016 RMK AO2 T01370128 =
2018-05-24 03:15 METAR KJOT 240815Z AUTO 00000KT 10SM CLR 14/13 A3016 RMK AO2 T01400128 =
2018-05-24 02:55 METAR KJOT 240755Z AUTO 00000KT 10SM CLR 14/13 A3017 RMK AO2 T01420126 =
2018-05-24 02:35 METAR KJOT 240735Z AUTO 00000KT 10SM CLR 14/12 A3016 RMK AO2 T01420124 =
2018-05-24 02:15 METAR KJOT 240715Z AUTO 00000KT 10SM CLR 16/12 A3016 RMK AO2 T01640121 =
2018-05-24 01:55 METAR KJOT 240655Z AUTO 00000KT 10SM CLR 15/13 A3016 RMK AO2 T01510125 =
2018-05-24 01:35 METAR KJOT 240635Z AUTO 00000KT 10SM CLR 15/12 A3017 RMK AO2 T01480124 =
2018-05-24 01:15 METAR KJOT 240615Z AUTO 00000KT 10SM CLR 15/12 A3017 RMK AO2 T01540119 =
2018-05-24 00:55 METAR KJOT 240555Z AUTO 00000KT 10SM CLR 15/12 A3017 RMK AO2 T01500119 10259
                 20146 402750095 =
2018-05-24 00:35 METAR KJOT 240535Z AUTO 00000KT 10SM CLR 16/11 A3018 RMK AO2 T01600114 =
2018-05-24 00:15 METAR KJOT 240515Z AUTO 00000KT 10SM CLR 17/11 A3018 RMK AO2 T01740109 =
2018-05-23 23:55 METAR KJOT 240455Z AUTO 00000KT 10SM CLR 17/11 A3019 RMK AO2 T01710107 =
2018-05-23 23:35 METAR KJOT 240435Z AUTO 08004KT 10SM CLR 17/11 A3019 RMK AO2 T01720108 =
2018-05-23 23:15 METAR KJOT 240415Z AUTO 00000KT 10SM CLR 18/09 A3018 RMK AO2 T01830094 =
2018-05-23 22:55 METAR KJOT 240355Z AUTO 00000KT 10SM CLR 19/08 A3019 RMK AO2 T01890084 =
2018-05-23 22:35 METAR KJOT 240335Z AUTO 05003KT 10SM CLR 19/09 A3018 RMK AO2 T01870089 =
2018-05-23 22:15 METAR KJOT 240315Z AUTO 06003KT 10SM CLR 19/08 A3018 RMK AO2 T01910084 =
2018-05-23 21:55 METAR KJOT 240255Z AUTO 06004KT 10SM CLR 20/09 A3018 RMK AO2 T01950086 =
2018-05-23 21:35 METAR KJOT 240235Z AUTO 06003KT 10SM CLR 21/09 A3017 RMK AO2 T02060094 =
2018-05-23 21:15 METAR KJOT 240215Z AUTO 00000KT 10SM CLR 21/10 A3017 RMK AO2 T02050103 =
2018-05-23 20:55 METAR KJOT 240155Z AUTO 06005KT 10SM CLR 21/10 A3016 RMK AO2 T02090104 =
2018-05-23 20:35 METAR KJOT 240135Z AUTO 06006KT 10SM CLR 22/11 A3016 RMK AO2 T02150105 =
2018-05-23 20:15 METAR KJOT 240115Z AUTO 08007KT 10SM CLR 23/10 A3015 RMK AO2 T02290104 =
2018-05-23 19:55 METAR KJOT 240055Z AUTO 09007KT 10SM CLR 24/11 A3014 RMK AO2 T02350107 =
2018-05-23 19:35 METAR KJOT 240035Z AUTO 07006KT 10SM CLR 25/10 A3014 RMK AO2 T02460101 =
2018-05-23 19:15 METAR KJOT 240015Z AUTO 07006KT 10SM CLR 25/11 A3014 RMK AO2 T02510108 =
2018-05-23 18:55 METAR KJOT 232355Z AUTO 06009KT 10SM CLR 26/11 A3013 RMK AO2 T02600114 10275
                 20247 =
2018-05-23 18:35 METAR KJOT 232335Z AUTO 08006KT 10SM CLR 26/12 A3013 RMK AO2 T02630120 =
2018-05-23 18:15 METAR KJOT 232315Z AUTO 09007KT 10SM CLR 27/13 A3013 RMK AO2 T02670130 =
2018-05-23 17:55 METAR KJOT 232255Z AUTO 00000KT 10SM CLR 27/11 A3013 RMK AO2 T02720113 =
2018-05-23 17:35 METAR KJOT 232235Z AUTO 13003KT 10SM CLR 27/13 A3013 RMK AO2 T02730126 =
2018-05-23 17:15 METAR KJOT 232215Z AUTO 14005KT 10SM CLR 27/13 A3014 RMK AO2 T02700128 =
2018-05-23 16:55 METAR KJOT 232155Z AUTO 12003KT 10SM CLR 27/13 A3014 RMK AO2 T02740134 =
2018-05-23 16:35 METAR KJOT 232135Z AUTO 13004KT 10SM CLR 27/14 A3014 RMK AO2 T02740140 =
2018-05-23 16:15 METAR KJOT 232115Z AUTO 18003KT 10SM CLR 27/13 A3014 RMK AO2 T02720131 =
2018-05-23 15:55 METAR KJOT 232055Z AUTO 00000KT 10SM CLR 27/13 A3015 RMK AO2 T02680134 =
2018-05-23 15:35 METAR KJOT 232035Z AUTO 06003KT 10SM CLR 27/14 A3016 RMK AO2 T02700141 =
2018-05-23 15:15 METAR KJOT 232015Z AUTO 05005KT 10SM CLR 27/14 A3017 RMK AO2 T02710136 =
2018-05-23 14:55 METAR KJOT 231955Z AUTO 06003KT 10SM CLR 27/14 A3017 RMK AO2 T02650141 =
2018-05-23 14:35 METAR KJOT 231935Z AUTO 00000KT 10SM CLR 26/15 A3018 RMK AO2 T02640146 =
2018-05-23 14:15 METAR KJOT 231915Z AUTO 13003KT 10SM CLR 26/15 A3019 RMK AO2 T02630150 =
2018-05-23 13:55 METAR KJOT 231855Z AUTO 21003KT 10SM CLR 26/15 A3019 RMK AO2 T02590150 =
2018-05-23 13:35 METAR KJOT 231835Z AUTO 15003KT 10SM CLR 25/15 A3019 RMK AO2 T02540146 =
2018-05-23 13:15 METAR KJOT 231815Z AUTO 00000KT 10SM CLR 25/14 A3020 RMK AO2 T02480136 =
2018-05-23 12:55 METAR KJOT 231755Z AUTO 00000KT 10SM CLR 25/15 A3020 RMK AO2 T02490151 10249
                 20124 =

Support USWX by starting your Amazon purchase here.